sensor_id;sensor_type;location;lat;lon;timestamp;P1;durP1;ratioP1;P2;durP2;ratioP2
22046;SDS011;11187;49.412;20.956;2023-03-14T00:00:25;18.85;;;17.05;;
22046;SDS011;11187;49.412;20.956;2023-03-14T00:02:59;18.55;;;16.73;;
22046;SDS011;11187;49.412;20.956;2023-03-14T00:05:45;19.15;;;17.10;;
22046;SDS011;11187;49.412;20.956;2023-03-14T00:08:19;17.20;;;15.07;;
22046;SDS011;11187;49.412;20.956;2023-03-14T00:11:09;17.27;;;15.45;;
22046;SDS011;11187;49.412;20.956;2023-03-14T00:13:51;17.98;;;14.32;;
22046;SDS011;11187;49.412;20.956;2023-03-14T00:16:45;17.58;;;15.52;;
22046;SDS011;11187;49.412;20.956;2023-03-14T00:19:19;16.98;;;15.38;;
22046;SDS011;11187;49.412;20.956;2023-03-14T00:22:12;16.90;;;15.05;;
22046;SDS011;11187;49.412;20.956;2023-03-14T00:25:07;16.13;;;14.63;;
22046;SDS011;11187;49.412;20.956;2023-03-14T00:27:42;17.02;;;15.32;;
22046;SDS011;11187;49.412;20.956;2023-03-14T00:30:28;17.67;;;15.98;;
22046;SDS011;11187;49.412;20.956;2023-03-14T00:33:02;16.58;;;14.82;;
22046;SDS011;11187;49.412;20.956;2023-03-14T00:38:32;17.27;;;15.63;;
22046;SDS011;11187;49.412;20.956;2023-03-14T00:41:20;17.40;;;15.73;;
22046;SDS011;11187;49.412;20.956;2023-03-14T00:43:57;17.98;;;16.23;;
22046;SDS011;11187;49.412;20.956;2023-03-14T00:46:43;17.05;;;15.35;;
22046;SDS011;11187;49.412;20.956;2023-03-14T00:49:17;17.40;;;15.60;;
22046;SDS011;11187;49.412;20.956;2023-03-14T00:52:03;17.77;;;16.05;;
22046;SDS011;11187;49.412;20.956;2023-03-14T00:54:37;16.73;;;15.00;;
22046;SDS011;11187;49.412;20.956;2023-03-14T00:57:30;17.10;;;15.43;;
22046;SDS011;11187;49.412;20.956;2023-03-14T01:00:04;16.65;;;15.07;;
22046;SDS011;11187;49.412;20.956;2023-03-14T01:02:58;21.60;;;14.85;;
22046;SDS011;11187;49.412;20.956;2023-03-14T01:05:53;22.17;;;15.77;;
22046;SDS011;11187;49.412;20.956;2023-03-14T01:08:27;17.90;;;15.98;;
22046;SDS011;11187;49.412;20.956;2023-03-14T01:11:15;18.73;;;16.65;;
22046;SDS011;11187;49.412;20.956;2023-03-14T01:13:51;17.52;;;15.80;;
22046;SDS011;11187;49.412;20.956;2023-03-14T01:16:38;17.13;;;14.73;;
22046;SDS011;11187;49.412;20.956;2023-03-14T01:19:12;17.83;;;15.93;;
22046;SDS011;11187;49.412;20.956;2023-03-14T01:21:58;16.17;;;14.50;;
22046;SDS011;11187;49.412;20.956;2023-03-14T01:24:32;15.35;;;13.75;;
22046;SDS011;11187;49.412;20.956;2023-03-14T01:27:18;16.30;;;14.80;;
22046;SDS011;11187;49.412;20.956;2023-03-14T01:29:52;16.95;;;15.25;;
22046;SDS011;11187;49.412;20.956;2023-03-14T01:32:38;15.57;;;14.18;;
22046;SDS011;11187;49.412;20.956;2023-03-14T01:35:12;17.00;;;15.30;;
22046;SDS011;11187;49.412;20.956;2023-03-14T01:37:58;14.43;;;13.07;;
22046;SDS011;11187;49.412;20.956;2023-03-14T01:40:32;16.80;;;15.23;;
22046;SDS011;11187;49.412;20.956;2023-03-14T01:43:19;18.50;;;16.67;;
22046;SDS011;11187;49.412;20.956;2023-03-14T01:54:53;17.10;;;14.75;;
22046;SDS011;11187;49.412;20.956;2023-03-14T01:57:53;16.75;;;15.23;;
22046;SDS011;11187;49.412;20.956;2023-03-14T02:00:30;17.30;;;15.80;;
22046;SDS011;11187;49.412;20.956;2023-03-14T02:03:17;17.98;;;16.25;;
22046;SDS011;11187;49.412;20.956;2023-03-14T02:05:56;17.25;;;15.55;;
22046;SDS011;11187;49.412;20.956;2023-03-14T02:08:51;16.60;;;14.90;;
22046;SDS011;11187;49.412;20.956;2023-03-14T02:11:26;17.23;;;15.43;;
22046;SDS011;11187;49.412;20.956;2023-03-14T02:14:24;18.30;;;16.40;;
22046;SDS011;11187;49.412;20.956;2023-03-14T02:17:03;17.08;;;15.52;;
22046;SDS011;11187;49.412;20.956;2023-03-14T02:20:06;19.00;;;16.63;;
22046;SDS011;11187;49.412;20.956;2023-03-14T02:23:06;18.10;;;14.60;;
22046;SDS011;11187;49.412;20.956;2023-03-14T02:26:01;16.20;;;14.43;;
22046;SDS011;11187;49.412;20.956;2023-03-14T02:28:42;18.23;;;14.55;;
22046;SDS011;11187;49.412;20.956;2023-03-14T02:31:29;15.50;;;13.98;;
22046;SDS011;11187;49.412;20.956;2023-03-14T02:34:03;18.30;;;16.45;;
22046;SDS011;11187;49.412;20.956;2023-03-14T02:36:50;15.93;;;14.43;;
22046;SDS011;11187;49.412;20.956;2023-03-14T02:39:27;16.48;;;14.82;;
22046;SDS011;11187;49.412;20.956;2023-03-14T02:42:23;15.68;;;14.10;;
22046;SDS011;11187;49.412;20.956;2023-03-14T02:48:20;15.80;;;14.25;;
22046;SDS011;11187;49.412;20.956;2023-03-14T02:50:57;17.35;;;15.82;;
22046;SDS011;11187;49.412;20.956;2023-03-14T02:53:47;17.15;;;15.45;;
22046;SDS011;11187;49.412;20.956;2023-03-14T02:56:41;16.20;;;14.73;;
22046;SDS011;11187;49.412;20.956;2023-03-14T02:59:35;15.43;;;13.77;;
22046;SDS011;11187;49.412;20.956;2023-03-14T03:02:29;16.00;;;14.60;;
22046;SDS011;11187;49.412;20.956;2023-03-14T03:05:23;16.95;;;15.30;;
22046;SDS011;11187;49.412;20.956;2023-03-14T03:08:18;16.63;;;15.02;;
22046;SDS011;11187;49.412;20.956;2023-03-14T03:11:13;22.40;;;14.63;;
22046;SDS011;11187;49.412;20.956;2023-03-14T03:14:07;17.33;;;15.57;;
22046;SDS011;11187;49.412;20.956;2023-03-14T03:17:01;16.50;;;14.98;;
22046;SDS011;11187;49.412;20.956;2023-03-14T03:19:35;14.73;;;13.23;;
22046;SDS011;11187;49.412;20.956;2023-03-14T03:22:21;16.20;;;14.70;;
22046;SDS011;11187;49.412;20.956;2023-03-14T03:24:55;16.88;;;15.15;;
22046;SDS011;11187;49.412;20.956;2023-03-14T03:27:48;16.55;;;14.95;;
22046;SDS011;11187;49.412;20.956;2023-03-14T03:30:22;16.48;;;14.98;;
22046;SDS011;11187;49.412;20.956;2023-03-14T03:33:09;15.13;;;13.50;;
22046;SDS011;11187;49.412;20.956;2023-03-14T03:35:47;15.32;;;13.93;;
22046;SDS011;11187;49.412;20.956;2023-03-14T03:38:35;15.70;;;13.90;;
22046;SDS011;11187;49.412;20.956;2023-03-14T03:41:09;19.38;;;16.17;;
22046;SDS011;11187;49.412;20.956;2023-03-14T03:43:56;17.65;;;15.10;;
22046;SDS011;11187;49.412;20.956;2023-03-14T03:46:30;15.63;;;14.18;;
22046;SDS011;11187;49.412;20.956;2023-03-14T03:49:16;15.60;;;14.15;;
22046;SDS011;11187;49.412;20.956;2023-03-14T03:51:50;15.38;;;13.68;;
22046;SDS011;11187;49.412;20.956;2023-03-14T03:54:43;15.85;;;14.45;;
22046;SDS011;11187;49.412;20.956;2023-03-14T03:57:37;18.00;;;16.20;;
22046;SDS011;11187;49.412;20.956;2023-03-14T04:00:11;16.67;;;14.98;;
22046;SDS011;11187;49.412;20.956;2023-03-14T04:02:57;16.17;;;14.57;;
22046;SDS011;11187;49.412;20.956;2023-03-14T04:05:32;15.57;;;13.98;;
22046;SDS011;11187;49.412;20.956;2023-03-14T04:08:18;16.10;;;14.52;;
22046;SDS011;11187;49.412;20.956;2023-03-14T04:10:56;15.15;;;13.68;;
22046;SDS011;11187;49.412;20.956;2023-03-14T04:13:46;15.73;;;14.18;;
22046;SDS011;11187;49.412;20.956;2023-03-14T04:16:21;15.73;;;14.32;;
22046;SDS011;11187;49.412;20.956;2023-03-14T04:19:10;14.15;;;12.70;;
22046;SDS011;11187;49.412;20.956;2023-03-14T04:21:44;15.07;;;13.70;;
22046;SDS011;11187;49.412;20.956;2023-03-14T04:24:30;17.08;;;15.38;;
22046;SDS011;11187;49.412;20.956;2023-03-14T04:27:04;17.45;;;15.65;;
22046;SDS011;11187;49.412;20.956;2023-03-14T04:29:57;14.82;;;13.40;;
22046;SDS011;11187;49.412;20.956;2023-03-14T04:32:51;15.50;;;14.00;;
22046;SDS011;11187;49.412;20.956;2023-03-14T04:35:25;15.52;;;14.13;;
22046;SDS011;11187;49.412;20.956;2023-03-14T04:38:12;20.27;;;15.75;;
22046;SDS011;11187;49.412;20.956;2023-03-14T04:40:46;17.38;;;15.68;;
22046;SDS011;11187;49.412;20.956;2023-03-14T04:43:33;14.65;;;13.45;;
22046;SDS011;11187;49.412;20.956;2023-03-14T04:46:06;17.67;;;16.10;;
22046;SDS011;11187;49.412;20.956;2023-03-14T04:48:59;15.63;;;14.23;;
22046;SDS011;11187;49.412;20.956;2023-03-14T04:51:33;16.42;;;14.85;;
22046;SDS011;11187;49.412;20.956;2023-03-14T04:54:19;17.77;;;15.35;;
22046;SDS011;11187;49.412;20.956;2023-03-14T04:56:53;16.63;;;15.07;;
22046;SDS011;11187;49.412;20.956;2023-03-14T04:59:39;16.92;;;15.15;;
22046;SDS011;11187;49.412;20.956;2023-03-14T05:02:13;16.30;;;14.63;;
22046;SDS011;11187;49.412;20.956;2023-03-14T05:05:07;17.08;;;15.57;;
22046;SDS011;11187;49.412;20.956;2023-03-14T05:07:40;17.38;;;15.70;;
22046;SDS011;11187;49.412;20.956;2023-03-14T05:10:27;17.15;;;15.48;;
22046;SDS011;11187;49.412;20.956;2023-03-14T05:13:00;16.27;;;14.57;;
22046;SDS011;11187;49.412;20.956;2023-03-14T05:15:46;15.27;;;13.60;;
22046;SDS011;11187;49.412;20.956;2023-03-14T05:18:20;16.45;;;14.80;;
22046;SDS011;11187;49.412;20.956;2023-03-14T05:21:06;14.05;;;12.57;;
22046;SDS011;11187;49.412;20.956;2023-03-14T05:23:40;15.82;;;14.10;;
22046;SDS011;11187;49.412;20.956;2023-03-14T05:26:26;20.35;;;13.85;;
22046;SDS011;11187;49.412;20.956;2023-03-14T05:29:00;17.08;;;13.55;;
22046;SDS011;11187;49.412;20.956;2023-03-14T05:31:47;15.40;;;13.77;;
22046;SDS011;11187;49.412;20.956;2023-03-14T05:34:20;14.70;;;13.20;;
22046;SDS011;11187;49.412;20.956;2023-03-14T05:37:07;18.40;;;13.93;;
22046;SDS011;11187;49.412;20.956;2023-03-14T05:39:40;15.35;;;13.75;;
22046;SDS011;11187;49.412;20.956;2023-03-14T05:42:34;14.95;;;13.30;;
22046;SDS011;11187;49.412;20.956;2023-03-14T05:45:27;16.52;;;13.38;;
22046;SDS011;11187;49.412;20.956;2023-03-14T05:48:22;18.92;;;15.95;;
22046;SDS011;11187;49.412;20.956;2023-03-14T05:50:55;14.52;;;13.13;;
22046;SDS011;11187;49.412;20.956;2023-03-14T05:53:42;17.73;;;13.93;;
22046;SDS011;11187;49.412;20.956;2023-03-14T05:56:37;15.73;;;14.00;;
22046;SDS011;11187;49.412;20.956;2023-03-14T05:59:31;15.02;;;13.27;;
22046;SDS011;11187;49.412;20.956;2023-03-14T06:02:04;17.27;;;12.10;;
22046;SDS011;11187;49.412;20.956;2023-03-14T06:04:51;16.10;;;13.40;;
22046;SDS011;11187;49.412;20.956;2023-03-14T06:07:25;15.73;;;14.23;;
22046;SDS011;11187;49.412;20.956;2023-03-14T06:10:12;15.63;;;12.18;;
22046;SDS011;11187;49.412;20.956;2023-03-14T06:12:45;14.48;;;12.65;;
22046;SDS011;11187;49.412;20.956;2023-03-14T06:15:32;17.55;;;14.05;;
22046;SDS011;11187;49.412;20.956;2023-03-14T06:18:05;19.02;;;12.93;;
22046;SDS011;11187;49.412;20.956;2023-03-14T06:20:55;14.57;;;13.07;;
22046;SDS011;11187;49.412;20.956;2023-03-14T06:23:29;13.43;;;11.90;;
22046;SDS011;11187;49.412;20.956;2023-03-14T06:26:22;14.10;;;12.80;;
22046;SDS011;11187;49.412;20.956;2023-03-14T06:28:56;16.92;;;13.10;;
22046;SDS011;11187;49.412;20.956;2023-03-14T06:31:50;13.90;;;11.63;;
22046;SDS011;11187;49.412;20.956;2023-03-14T06:34:44;13.45;;;12.20;;
22046;SDS011;11187;49.412;20.956;2023-03-14T06:37:17;13.85;;;12.57;;
22046;SDS011;11187;49.412;20.956;2023-03-14T06:40:04;13.68;;;11.63;;
22046;SDS011;11187;49.412;20.956;2023-03-14T06:42:38;14.73;;;13.23;;
22046;SDS011;11187;49.412;20.956;2023-03-14T06:45:32;14.02;;;12.30;;
22046;SDS011;11187;49.412;20.956;2023-03-14T06:48:26;16.40;;;13.70;;
22046;SDS011;11187;49.412;20.956;2023-03-14T06:50:59;18.25;;;13.35;;
22046;SDS011;11187;49.412;20.956;2023-03-14T06:53:48;23.52;;;13.13;;
22046;SDS011;11187;49.412;20.956;2023-03-14T06:56:42;16.80;;;13.85;;
22046;SDS011;11187;49.412;20.956;2023-03-14T06:59:36;18.33;;;12.73;;
22046;SDS011;11187;49.412;20.956;2023-03-14T07:02:12;14.00;;;12.70;;
22046;SDS011;11187;49.412;20.956;2023-03-14T07:05:21;15.90;;;14.20;;
22046;SDS011;11187;49.412;20.956;2023-03-14T07:07:54;15.30;;;13.70;;
22046;SDS011;11187;49.412;20.956;2023-03-14T07:10:48;14.55;;;12.68;;
22046;SDS011;11187;49.412;20.956;2023-03-14T07:13:42;13.32;;;11.80;;
22046;SDS011;11187;49.412;20.956;2023-03-14T07:16:36;14.93;;;13.25;;
22046;SDS011;11187;49.412;20.956;2023-03-14T07:19:10;15.98;;;14.00;;
22046;SDS011;11187;49.412;20.956;2023-03-14T07:22:04;17.48;;;15.45;;
22046;SDS011;11187;49.412;20.956;2023-03-14T07:24:59;13.32;;;12.02;;
22046;SDS011;11187;49.412;20.956;2023-03-14T07:27:53;15.57;;;12.52;;
22046;SDS011;11187;49.412;20.956;2023-03-14T07:30:26;19.40;;;15.55;;
22046;SDS011;11187;49.412;20.956;2023-03-14T07:33:13;17.67;;;14.15;;
22046;SDS011;11187;49.412;20.956;2023-03-14T07:35:49;18.63;;;13.38;;
22046;SDS011;11187;49.412;20.956;2023-03-14T07:38:44;18.20;;;10.70;;
22046;SDS011;11187;49.412;20.956;2023-03-14T07:41:39;13.88;;;12.07;;
22046;SDS011;11187;49.412;20.956;2023-03-14T07:44:12;15.00;;;12.15;;
22046;SDS011;11187;49.412;20.956;2023-03-14T07:46:59;13.43;;;11.40;;
22046;SDS011;11187;49.412;20.956;2023-03-14T07:49:32;16.35;;;11.38;;
22046;SDS011;11187;49.412;20.956;2023-03-14T07:52:19;15.25;;;12.77;;
22046;SDS011;11187;49.412;20.956;2023-03-14T07:54:52;12.10;;;10.82;;
22046;SDS011;11187;49.412;20.956;2023-03-14T07:57:46;13.60;;;12.27;;
22046;SDS011;11187;49.412;20.956;2023-03-14T08:00:19;13.80;;;11.25;;
22046;SDS011;11187;49.412;20.956;2023-03-14T08:03:14;12.52;;;11.05;;
22046;SDS011;11187;49.412;20.956;2023-03-14T08:05:48;13.40;;;12.20;;
22046;SDS011;11187;49.412;20.956;2023-03-14T08:08:43;14.68;;;13.18;;
22046;SDS011;11187;49.412;20.956;2023-03-14T08:11:37;14.05;;;12.57;;
22046;SDS011;11187;49.412;20.956;2023-03-14T08:14:31;16.67;;;15.00;;
22046;SDS011;11187;49.412;20.956;2023-03-14T08:17:04;14.10;;;12.13;;
22046;SDS011;11187;49.412;20.956;2023-03-14T08:19:51;14.25;;;13.05;;
22046;SDS011;11187;49.412;20.956;2023-03-14T08:22:24;20.80;;;13.48;;
22046;SDS011;11187;49.412;20.956;2023-03-14T08:25:11;12.27;;;11.07;;
22046;SDS011;11187;49.412;20.956;2023-03-14T08:27:44;11.63;;;10.43;;
22046;SDS011;11187;49.412;20.956;2023-03-14T08:30:38;16.30;;;10.70;;
22046;SDS011;11187;49.412;20.956;2023-03-14T08:33:32;12.18;;;9.90;;
22046;SDS011;11187;49.412;20.956;2023-03-14T08:36:05;14.82;;;13.38;;
22046;SDS011;11187;49.412;20.956;2023-03-14T08:38:53;15.55;;;13.95;;
22046;SDS011;11187;49.412;20.956;2023-03-14T08:41:26;16.13;;;14.07;;
22046;SDS011;11187;49.412;20.956;2023-03-14T08:44:20;13.63;;;12.30;;
22046;SDS011;11187;49.412;20.956;2023-03-14T08:47:14;14.75;;;11.73;;
22046;SDS011;11187;49.412;20.956;2023-03-14T08:49:47;13.27;;;10.90;;
22046;SDS011;11187;49.412;20.956;2023-03-14T08:52:34;13.10;;;11.88;;
22046;SDS011;11187;49.412;20.956;2023-03-14T08:55:08;13.27;;;12.07;;
22046;SDS011;11187;49.412;20.956;2023-03-14T08:58:03;13.98;;;12.57;;
22046;SDS011;11187;49.412;20.956;2023-03-14T09:00:36;13.52;;;12.05;;
22046;SDS011;11187;49.412;20.956;2023-03-14T09:03:30;14.77;;;12.00;;
22046;SDS011;11187;49.412;20.956;2023-03-14T09:06:24;15.13;;;12.80;;
22046;SDS011;11187;49.412;20.956;2023-03-14T09:09:18;13.95;;;12.35;;
22046;SDS011;11187;49.412;20.956;2023-03-14T09:11:51;13.25;;;11.80;;
22046;SDS011;11187;49.412;20.956;2023-03-14T09:14:38;14.88;;;11.10;;
22046;SDS011;11187;49.412;20.956;2023-03-14T09:17:11;13.57;;;12.23;;
22046;SDS011;11187;49.412;20.956;2023-03-14T09:19:58;14.65;;;13.32;;
22046;SDS011;11187;49.412;20.956;2023-03-14T09:22:31;14.15;;;12.68;;
22046;SDS011;11187;49.412;20.956;2023-03-14T09:25:25;12.82;;;11.73;;
22046;SDS011;11187;49.412;20.956;2023-03-14T09:27:58;12.48;;;11.43;;
22046;SDS011;11187;49.412;20.956;2023-03-14T09:30:52;14.63;;;13.20;;
22046;SDS011;11187;49.412;20.956;2023-03-14T09:33:25;18.15;;;14.02;;
22046;SDS011;11187;49.412;20.956;2023-03-14T09:36:19;15.73;;;12.77;;
22046;SDS011;11187;49.412;20.956;2023-03-14T09:39:13;14.05;;;12.82;;
22046;SDS011;11187;49.412;20.956;2023-03-14T09:41:47;13.20;;;11.82;;
22046;SDS011;11187;49.412;20.956;2023-03-14T09:47:49;16.20;;;14.60;;
22046;SDS011;11187;49.412;20.956;2023-03-14T09:50:44;14.32;;;11.90;;
22046;SDS011;11187;49.412;20.956;2023-03-14T09:53:23;14.13;;;12.63;;
22046;SDS011;11187;49.412;20.956;2023-03-14T09:56:27;15.80;;;13.10;;
22046;SDS011;11187;49.412;20.956;2023-03-14T09:59:25;15.98;;;14.27;;
22046;SDS011;11187;49.412;20.956;2023-03-14T10:02:23;15.48;;;13.90;;
22046;SDS011;11187;49.412;20.956;2023-03-14T10:05:19;14.73;;;13.23;;
22046;SDS011;11187;49.412;20.956;2023-03-14T10:08:12;18.17;;;12.43;;
22046;SDS011;11187;49.412;20.956;2023-03-14T10:10:46;18.70;;;14.90;;
22046;SDS011;11187;49.412;20.956;2023-03-14T10:16:50;15.75;;;14.13;;
22046;SDS011;11187;49.412;20.956;2023-03-14T10:19:23;16.08;;;14.68;;
22046;SDS011;11187;49.412;20.956;2023-03-14T10:22:10;15.80;;;14.30;;
22046;SDS011;11187;49.412;20.956;2023-03-14T10:24:51;15.23;;;13.85;;
22046;SDS011;11187;49.412;20.956;2023-03-14T10:27:40;14.70;;;13.60;;
22046;SDS011;11187;49.412;20.956;2023-03-14T10:30:26;14.60;;;13.30;;
22046;SDS011;11187;49.412;20.956;2023-03-14T10:33:32;14.57;;;13.23;;
22046;SDS011;11187;49.412;20.956;2023-03-14T10:36:33;14.88;;;13.27;;
22046;SDS011;11187;49.412;20.956;2023-03-14T10:39:28;14.95;;;13.23;;
22046;SDS011;11187;49.412;20.956;2023-03-14T10:42:13;16.73;;;15.07;;
22046;SDS011;11187;49.412;20.956;2023-03-14T10:45:05;17.60;;;14.15;;
22046;SDS011;11187;49.412;20.956;2023-03-14T10:48:13;15.95;;;14.40;;
22046;SDS011;11187;49.412;20.956;2023-03-14T10:56:57;15.50;;;14.00;;
22046;SDS011;11187;49.412;20.956;2023-03-14T10:59:36;15.95;;;14.52;;
22046;SDS011;11187;49.412;20.956;2023-03-14T11:05:57;13.48;;;12.18;;
22046;SDS011;11187;49.412;20.956;2023-03-14T11:11:36;14.38;;;13.18;;
22046;SDS011;11187;49.412;20.956;2023-03-14T11:17:22;14.90;;;13.40;;
22046;SDS011;11187;49.412;20.956;2023-03-14T11:20:42;14.60;;;13.35;;
22046;SDS011;11187;49.412;20.956;2023-03-14T11:23:27;14.18;;;12.77;;
22046;SDS011;11187;49.412;20.956;2023-03-14T11:28:58;15.93;;;14.20;;
22046;SDS011;11187;49.412;20.956;2023-03-14T11:32:02;14.13;;;12.70;;
22046;SDS011;11187;49.412;20.956;2023-03-14T11:35:11;14.15;;;12.65;;
22046;SDS011;11187;49.412;20.956;2023-03-14T11:41:18;14.68;;;13.00;;
22046;SDS011;11187;49.412;20.956;2023-03-14T11:50:22;15.10;;;13.63;;
22046;SDS011;11187;49.412;20.956;2023-03-14T11:53:04;19.85;;;15.25;;
22046;SDS011;11187;49.412;20.956;2023-03-14T11:56:03;16.13;;;14.63;;
22046;SDS011;11187;49.412;20.956;2023-03-14T11:58:59;15.48;;;13.90;;
22046;SDS011;11187;49.412;20.956;2023-03-14T12:01:44;15.45;;;14.02;;
22046;SDS011;11187;49.412;20.956;2023-03-14T12:04:52;16.90;;;15.18;;
22046;SDS011;11187;49.412;20.956;2023-03-14T12:07:48;19.00;;;15.50;;
22046;SDS011;11187;49.412;20.956;2023-03-14T12:14:28;16.25;;;14.65;;
22046;SDS011;11187;49.412;20.956;2023-03-14T12:17:07;14.27;;;12.98;;
22046;SDS011;11187;49.412;20.956;2023-03-14T12:23:01;16.20;;;13.95;;
22046;SDS011;11187;49.412;20.956;2023-03-14T12:26:08;15.57;;;14.18;;
22046;SDS011;11187;49.412;20.956;2023-03-14T12:31:42;14.68;;;13.15;;
22046;SDS011;11187;49.412;20.956;2023-03-14T12:34:32;15.20;;;13.73;;
22046;SDS011;11187;49.412;20.956;2023-03-14T12:40:03;16.20;;;12.73;;
22046;SDS011;11187;49.412;20.956;2023-03-14T12:43:00;14.60;;;13.20;;
22046;SDS011;11187;49.412;20.956;2023-03-14T12:48:54;15.82;;;13.55;;
22046;SDS011;11187;49.412;20.956;2023-03-14T12:51:41;14.27;;;12.85;;
22046;SDS011;11187;49.412;20.956;2023-03-14T13:00:24;15.00;;;13.48;;
22046;SDS011;11187;49.412;20.956;2023-03-14T13:03:22;14.57;;;13.05;;
22046;SDS011;11187;49.412;20.956;2023-03-14T13:06:01;15.13;;;13.52;;
22046;SDS011;11187;49.412;20.956;2023-03-14T13:08:56;14.95;;;13.65;;
22046;SDS011;11187;49.412;20.956;2023-03-14T13:11:29;14.90;;;13.43;;
22046;SDS011;11187;49.412;20.956;2023-03-14T13:14:20;14.60;;;13.20;;
22046;SDS011;11187;49.412;20.956;2023-03-14T13:16:54;13.93;;;12.55;;
22046;SDS011;11187;49.412;20.956;2023-03-14T13:20:04;14.27;;;12.77;;
22046;SDS011;11187;49.412;20.956;2023-03-14T13:22:46;14.40;;;13.02;;
22046;SDS011;11187;49.412;20.956;2023-03-14T13:25:42;14.45;;;13.00;;
22046;SDS011;11187;49.412;20.956;2023-03-14T13:28:15;15.75;;;14.05;;
22046;SDS011;11187;49.412;20.956;2023-03-14T13:31:16;15.05;;;13.65;;
22046;SDS011;11187;49.412;20.956;2023-03-14T13:33:59;15.25;;;13.57;;
22046;SDS011;11187;49.412;20.956;2023-03-14T13:36:47;14.68;;;13.25;;
22046;SDS011;11187;49.412;20.956;2023-03-14T13:39:25;13.90;;;12.52;;
22046;SDS011;11187;49.412;20.956;2023-03-14T13:42:21;14.55;;;12.98;;
22046;SDS011;11187;49.412;20.956;2023-03-14T13:45:19;15.05;;;13.55;;
22046;SDS011;11187;49.412;20.956;2023-03-14T13:47:52;13.43;;;11.73;;
22046;SDS011;11187;49.412;20.956;2023-03-14T13:50:39;15.90;;;12.07;;
22046;SDS011;11187;49.412;20.956;2023-03-14T13:53:27;14.80;;;13.15;;
22046;SDS011;11187;49.412;20.956;2023-03-14T13:56:22;15.73;;;14.10;;
22046;SDS011;11187;49.412;20.956;2023-03-14T13:59:30;13.40;;;11.98;;
22046;SDS011;11187;49.412;20.956;2023-03-14T14:02:09;13.30;;;11.73;;
22046;SDS011;11187;49.412;20.956;2023-03-14T14:05:00;14.55;;;13.25;;
22046;SDS011;11187;49.412;20.956;2023-03-14T14:07:34;15.23;;;13.30;;
22046;SDS011;11187;49.412;20.956;2023-03-14T14:10:21;14.77;;;13.38;;
22046;SDS011;11187;49.412;20.956;2023-03-14T14:12:59;14.10;;;12.70;;
22046;SDS011;11187;49.412;20.956;2023-03-14T14:15:49;19.10;;;13.00;;
22046;SDS011;11187;49.412;20.956;2023-03-14T14:18:25;15.82;;;12.15;;
22046;SDS011;11187;49.412;20.956;2023-03-14T14:21:14;17.55;;;10.85;;
22046;SDS011;11187;49.412;20.956;2023-03-14T14:23:48;14.60;;;12.98;;
22046;SDS011;11187;49.412;20.956;2023-03-14T14:26:35;15.00;;;13.43;;
22046;SDS011;11187;49.412;20.956;2023-03-14T14:29:21;14.05;;;12.65;;
22046;SDS011;11187;49.412;20.956;2023-03-14T14:32:14;18.02;;;14.93;;
22046;SDS011;11187;49.412;20.956;2023-03-14T14:34:57;15.65;;;13.90;;
22046;SDS011;11187;49.412;20.956;2023-03-14T14:37:54;24.50;;;19.52;;
22046;SDS011;11187;49.412;20.956;2023-03-14T14:40:28;25.23;;;16.23;;
22046;SDS011;11187;49.412;20.956;2023-03-14T14:43:23;16.67;;;13.57;;
22046;SDS011;11187;49.412;20.956;2023-03-14T14:46:05;20.40;;;13.30;;
22046;SDS011;11187;49.412;20.956;2023-03-14T14:49:09;14.93;;;13.27;;
22046;SDS011;11187;49.412;20.956;2023-03-14T14:52:09;16.40;;;14.27;;
22046;SDS011;11187;49.412;20.956;2023-03-14T14:55:12;17.08;;;14.75;;
22046;SDS011;11187;49.412;20.956;2023-03-14T15:01:04;18.00;;;14.45;;
22046;SDS011;11187;49.412;20.956;2023-03-14T15:04:09;20.48;;;14.65;;
22046;SDS011;11187;49.412;20.956;2023-03-14T15:06:46;17.08;;;14.43;;
22046;SDS011;11187;49.412;20.956;2023-03-14T15:09:42;20.67;;;15.88;;
22046;SDS011;11187;49.412;20.956;2023-03-14T15:12:36;25.30;;;17.60;;
22046;SDS011;11187;49.412;20.956;2023-03-14T15:15:30;22.65;;;17.65;;
22046;SDS011;11187;49.412;20.956;2023-03-14T15:18:10;20.08;;;16.15;;
22046;SDS011;11187;49.412;20.956;2023-03-14T15:21:03;19.02;;;15.02;;
22046;SDS011;11187;49.412;20.956;2023-03-14T15:23:36;20.73;;;17.30;;
22046;SDS011;11187;49.412;20.956;2023-03-14T15:26:30;21.58;;;17.50;;
22046;SDS011;11187;49.412;20.956;2023-03-14T15:29:03;21.67;;;15.82;;
22046;SDS011;11187;49.412;20.956;2023-03-14T15:31:58;21.60;;;17.45;;
22046;SDS011;11187;49.412;20.956;2023-03-14T15:34:31;19.95;;;16.15;;
22046;SDS011;11187;49.412;20.956;2023-03-14T15:37:18;22.13;;;15.85;;
22046;SDS011;11187;49.412;20.956;2023-03-14T15:39:51;28.75;;;17.88;;
22046;SDS011;11187;49.412;20.956;2023-03-14T15:42:38;32.05;;;19.90;;
22046;SDS011;11187;49.412;20.956;2023-03-14T15:45:11;28.50;;;19.40;;
22046;SDS011;11187;49.412;20.956;2023-03-14T15:47:59;26.58;;;17.33;;
22046;SDS011;11187;49.412;20.956;2023-03-14T15:50:32;25.27;;;17.30;;
22046;SDS011;11187;49.412;20.956;2023-03-14T15:53:26;22.80;;;17.50;;
22046;SDS011;11187;49.412;20.956;2023-03-14T15:55:59;33.20;;;18.35;;
22046;SDS011;11187;49.412;20.956;2023-03-14T15:58:46;27.92;;;18.27;;
22046;SDS011;11187;49.412;20.956;2023-03-14T16:01:19;33.72;;;20.15;;
22046;SDS011;11187;49.412;20.956;2023-03-14T16:04:13;39.35;;;22.00;;
22046;SDS011;11187;49.412;20.956;2023-03-14T16:06:47;43.63;;;25.02;;
22046;SDS011;11187;49.412;20.956;2023-03-14T16:09:41;42.80;;;25.48;;
22046;SDS011;11187;49.412;20.956;2023-03-14T16:12:14;35.38;;;21.67;;
22046;SDS011;11187;49.412;20.956;2023-03-14T16:15:08;37.92;;;20.95;;
22046;SDS011;11187;49.412;20.956;2023-03-14T16:18:03;47.70;;;27.83;;
22046;SDS011;11187;49.412;20.956;2023-03-14T16:21:02;63.50;;;33.35;;
22046;SDS011;11187;49.412;20.956;2023-03-14T16:23:38;56.70;;;32.15;;
22046;SDS011;11187;49.412;20.956;2023-03-14T16:26:33;58.95;;;32.33;;
22046;SDS011;11187;49.412;20.956;2023-03-14T16:29:11;55.58;;;29.85;;
22046;SDS011;11187;49.412;20.956;2023-03-14T16:31:58;55.55;;;30.08;;
22046;SDS011;11187;49.412;20.956;2023-03-14T16:34:31;49.40;;;28.23;;
22046;SDS011;11187;49.412;20.956;2023-03-14T16:37:25;45.10;;;27.60;;
22046;SDS011;11187;49.412;20.956;2023-03-14T16:40:19;44.60;;;23.75;;
22046;SDS011;11187;49.412;20.956;2023-03-14T16:42:55;45.28;;;27.30;;
22046;SDS011;11187;49.412;20.956;2023-03-14T16:45:58;54.65;;;30.65;;
22046;SDS011;11187;49.412;20.956;2023-03-14T16:48:32;64.15;;;31.45;;
22046;SDS011;11187;49.412;20.956;2023-03-14T16:51:20;57.00;;;31.60;;
22046;SDS011;11187;49.412;20.956;2023-03-14T16:53:53;50.53;;;29.63;;
22046;SDS011;11187;49.412;20.956;2023-03-14T16:56:47;51.67;;;29.95;;
22046;SDS011;11187;49.412;20.956;2023-03-14T16:59:41;74.32;;;36.55;;
22046;SDS011;11187;49.412;20.956;2023-03-14T17:02:17;65.93;;;36.42;;
22046;SDS011;11187;49.412;20.956;2023-03-14T17:05:11;76.57;;;37.05;;
22046;SDS011;11187;49.412;20.956;2023-03-14T17:08:05;80.65;;;38.58;;